Time;durP1;ratioP1;P1;durP2;ratioP2;P2;SDS_P1;SDS_P2;PMS_P1;PMS_P2;Temp;Humidity;BMP_temperature;BMP_pressure;BME280_temperature;BME280_humidity;BME280_pressure;Samples;Min_cycle;Max_cycle;Signal;HPM_P1;HPM_P2
2022/04/07 00:01:50;;;;;;;18.30;1.58;;;;;;;12.51;75.76;98354.38;7388125;19;20447;-65
2022/04/07 00:04:17;;;;;;;16.70;2.90;;;;;;;12.52;75.96;98339.38;7392763;19;20460;-63
2022/04/07 00:06:44;;;;;;;16.85;1.20;;;;;;;12.53;75.05;98348.91;7392263;19;20511;-63
2022/04/07 00:09:11;;;;;;;12.00;0.95;;;;;;;12.55;75.67;98333.63;7392519;19;20016;-63
2022/04/07 00:11:38;;;;;;;9.13;0.85;;;;;;;12.56;75.28;98332.59;7388740;19;20025;-63
2022/04/07 00:14:05;;;;;;;13.73;0.88;;;;;;;12.53;75.34;98319.88;7389111;19;20020;-65
2022/04/07 00:16:32;;;;;;;12.93;0.85;;;;;;;12.53;75.38;98315.41;7389526;19;20021;-63
2022/04/07 00:18:59;;;;;;;11.02;0.70;;;;;;;12.52;75.20;98308.53;7389038;19;20098;-65
2022/04/07 00:21:35;;;;;;;16.02;0.80;;;;;;;12.51;75.08;98312.19;7388979;19;20025;-63
2022/04/07 00:24:06;;;;;;;12.27;1.05;;;;;;;12.55;76.00;98310.69;7388704;19;20539;-66
2022/04/07 00:26:37;;;;;;;20.85;1.35;;;;;;;12.56;74.47;98295.69;7390998;19;20041;-63
2022/04/07 00:29:06;;;;;;;16.50;0.77;;;;;;;12.56;74.76;98303.59;7389045;19;20538;-62
2022/04/07 00:31:39;;;;;;;12.45;0.90;;;;;;;12.56;75.05;98308.88;7386803;19;20006;-63
2022/04/07 00:34:08;;;;;;;13.80;1.17;;;;;;;12.59;75.35;98280.22;7391711;19;20011;-66
2022/04/07 00:36:35;;;;;;;10.00;0.80;;;;;;;12.54;75.38;98293.28;7393973;19;20014;-65
2022/04/07 00:39:03;;;;;;;13.55;0.65;;;;;;;12.53;75.62;98269.75;7389603;19;20045;-65
2022/04/07 00:41:30;;;;;;;11.10;1.20;;;;;;;12.54;75.54;98271.38;7389580;19;20399;-64
2022/04/07 00:43:56;;;;;;;13.88;1.05;;;;;;;12.54;76.11;98261.63;7387833;19;20044;-64
2022/04/07 00:46:23;;;;;;;10.27;0.85;;;;;;;12.54;76.23;98256.34;7385923;19;20021;-65
2022/04/07 00:48:50;;;;;;;8.43;0.73;;;;;;;12.55;76.60;98252.66;7389019;19;20038;-65
2022/04/07 00:51:17;;;;;;;11.05;1.17;;;;;;;12.61;76.65;98240.41;7387946;19;20021;-65
2022/04/07 00:53:45;;;;;;;11.90;0.80;;;;;;;12.63;76.51;98239.16;7388277;19;20007;-65
2022/04/07 00:56:13;;;;;;;11.18;1.90;;;;;;;12.64;75.69;98229.41;7392748;19;20006;-64
2022/04/07 00:58:40;;;;;;;10.75;0.85;;;;;;;12.66;76.32;98217.56;7386612;19;20011;-63
2022/04/07 01:01:09;;;;;;;12.20;0.90;;;;;;;12.68;76.91;98220.00;7389870;19;20022;-63
2022/04/07 01:03:36;;;;;;;18.25;1.52;;;;;;;12.68;76.83;98207.59;7390855;19;20058;-64
2022/04/07 01:06:03;;;;;;;13.07;0.90;;;;;;;12.71;76.89;98204.50;7386565;19;20089;-64
2022/04/07 01:08:30;;;;;;;11.10;0.50;;;;;;;12.72;76.66;98200.81;7391740;19;20021;-62
2022/04/07 01:10:57;;;;;;;7.53;0.50;;;;;;;12.72;76.54;98195.53;7387684;19;20014;-63
2022/04/07 01:13:50;;;;;;;9.05;0.63;;;;;;;12.74;77.10;98190.03;7390101;19;20021;-63
2022/04/07 01:16:19;;;;;;;13.65;0.50;;;;;;;12.71;78.02;98179.94;7389606;19;20433;-63
2022/04/07 01:18:46;;;;;;;10.40;0.63;;;;;;;12.67;78.11;98192.00;7387629;19;20031;-65
2022/04/07 01:21:14;;;;;;;9.40;0.85;;;;;;;12.62;79.71;98202.44;7387085;19;20114;-62
2022/04/07 01:23:48;;;;;;;11.27;1.48;;;;;;;12.64;81.28;98229.41;7384714;19;20019;-63
2022/04/07 01:26:15;;;;;;;8.15;1.00;;;;;;;12.69;83.45;98243.50;7388710;19;20736;-63
2022/04/07 01:28:49;;;;;;;7.95;0.45;;;;;;;12.62;82.58;98219.06;7387067;19;20017;-63
2022/04/07 01:31:16;;;;;;;6.82;1.23;;;;;;;12.47;81.02;98236.38;7388329;19;20082;-64
2022/04/07 01:33:45;;;;;;;6.20;0.30;;;;;;;12.40;82.50;98218.03;7389981;19;20123;-63
2022/04/07 01:36:12;;;;;;;4.70;0.30;;;;;;;12.38;83.49;98228.03;7386158;19;20022;-63
2022/04/07 01:38:41;;;;;;;4.22;0.20;;;;;;;12.31;82.65;98216.78;7385989;19;20020;-63
2022/04/07 01:41:08;;;;;;;3.92;0.20;;;;;;;12.20;82.58;98207.81;7386049;19;20037;-64
2022/04/07 01:43:37;;;;;;;5.55;0.63;;;;;;;12.17;82.78;98191.66;7386638;19;20013;-64
2022/04/07 01:46:04;;;;;;;1.52;0.20;;;;;;;12.05;83.61;98189.00;7384617;19;20022;-64
2022/04/07 01:48:31;;;;;;;5.00;0.28;;;;;;;12.02;84.34;98194.75;7386287;19;20111;-63
2022/04/07 01:50:58;;;;;;;10.40;1.27;;;;;;;12.02;85.17;98186.84;7384102;19;20081;-64
2022/04/07 01:53:25;;;;;;;2.95;0.10;;;;;;;11.98;84.68;98172.53;7387687;19;20014;-63
2022/04/07 01:55:53;;;;;;;2.17;0.15;;;;;;;11.94;83.65;98180.06;7383444;19;20018;-64
2022/04/07 01:58:20;;;;;;;2.47;0.20;;;;;;;11.87;83.89;98181.22;7387153;19;20448;-64
2022/04/07 02:00:46;;;;;;;1.75;0.00;;;;;;;11.68;83.16;98167.28;7383333;19;20002;-64
2022/04/07 02:03:14;;;;;;;1.85;0.20;;;;;;;11.66;84.88;98165.91;7386768;19;20018;-63
2022/04/07 02:05:41;;;;;;;2.95;0.20;;;;;;;11.66;85.51;98155.38;7388079;19;20018;-66
2022/04/07 02:08:07;;;;;;;5.07;0.15;;;;;;;11.65;84.84;98140.59;7383760;19;20015;-64
2022/04/07 02:10:34;;;;;;;2.17;0.20;;;;;;;11.64;85.72;98154.78;7386054;19;20355;-62
2022/04/07 02:13:01;;;;;;;3.97;0.20;;;;;;;11.61;85.78;98157.88;7389005;19;20049;-65
2022/04/07 02:15:28;;;;;;;1.73;0.10;;;;;;;11.58;85.91;98136.22;7385766;19;20010;-63
2022/04/07 02:17:55;;;;;;;2.47;0.17;;;;;;;11.56;85.85;98143.56;7383599;19;20017;-64
2022/04/07 02:20:22;;;;;;;0.50;0.10;;;;;;;11.56;86.28;98137.47;7388746;19;20525;-65
2022/04/07 02:22:50;;;;;;;7.18;0.77;;;;;;;11.56;87.11;98133.03;7386151;19;20022;-64
2022/04/07 02:25:16;;;;;;;1.42;0.40;;;;;;;11.55;87.06;98156.94;7383457;19;20026;-66
2022/04/07 02:27:44;;;;;;;2.75;0.15;;;;;;;11.55;86.82;98144.56;7384685;19;20018;-64
2022/04/07 02:30:13;;;;;;;2.25;0.22;;;;;;;11.58;86.33;98143.31;7382292;19;20472;-63
2022/04/07 02:32:41;;;;;;;2.08;0.10;;;;;;;11.54;86.35;98131.63;7382204;19;20018;-63
2022/04/07 02:35:13;;;;;;;2.25;0.20;;;;;;;11.50;86.32;98146.28;7387366;19;20014;-64
2022/04/07 02:37:42;;;;;;;7.57;0.88;;;;;;;11.50;86.78;98157.63;7385938;19;20474;-64
2022/04/07 02:40:13;;;;;;;0.80;0.10;;;;;;;11.48;87.21;98148.31;7385073;19;20018;-63
2022/04/07 02:42:41;;;;;;;3.30;0.30;;;;;;;11.49;86.72;98134.94;7384803;19;20086;-64
2022/04/07 02:45:08;;;;;;;1.23;0.15;;;;;;;11.49;87.41;98148.09;7386092;19;20029;-64
2022/04/07 02:47:38;;;;;;;2.83;0.10;;;;;;;11.47;87.94;98131.75;7381878;19;20013;-64
2022/04/07 02:50:05;;;;;;;2.15;0.10;;;;;;;11.47;87.22;98136.22;7384288;19;20073;-64
2022/04/07 02:52:35;;;;;;;1.45;0.15;;;;;;;11.44;86.09;98145.34;7387950;19;20030;-64
2022/04/07 02:55:03;;;;;;;5.28;0.68;;;;;;;11.44;86.60;98142.72;7384856;19;20021;-62
2022/04/07 02:57:33;;;;;;;3.22;0.63;;;;;;;11.40;86.02;98136.28;7384583;19;20325;-63
2022/04/07 03:00:02;;;;;;;8.75;0.43;;;;;;;11.37;86.46;98112.25;7383546;19;20002;-63
2022/04/07 03:02:29;;;;;;;2.72;0.38;;;;;;;11.36;86.95;98108.00;7385580;19;20086;-63
2022/04/07 03:04:56;;;;;;;2.80;0.15;;;;;;;11.26;85.80;98100.66;7385876;19;20050;-62
2022/04/07 03:07:23;;;;;;;5.15;0.57;;;;;;;11.26;87.39;98113.03;7378447;19;20006;-63
2022/04/07 03:09:50;;;;;;;4.22;0.20;;;;;;;11.20;86.90;98090.22;7387306;19;20015;-62
2022/04/07 03:12:17;;;;;;;2.40;0.20;;;;;;;11.15;87.25;98096.97;7383400;19;20516;-65
2022/04/07 03:14:44;;;;;;;4.30;0.50;;;;;;;11.19;88.46;98117.56;7384740;19;20021;-63
2022/04/07 03:17:11;;;;;;;1.63;0.10;;;;;;;11.18;88.13;98097.53;7383646;19;20897;-64
2022/04/07 03:19:38;;;;;;;2.97;0.10;;;;;;;11.10;87.17;98078.41;7382407;19;20011;-63
2022/04/07 03:22:05;;;;;;;2.72;0.20;;;;;;;10.99;85.87;98086.25;7388099;19;20093;-64
2022/04/07 03:24:32;;;;;;;2.20;0.20;;;;;;;10.89;85.90;98088.63;7383183;19;20025;-62
2022/04/07 03:27:05;;;;;;;4.78;0.30;;;;;;;10.84;86.25;98089.31;7380111;19;20014;-65
2022/04/07 03:29:34;;;;;;;2.80;0.15;;;;;;;10.86;86.80;98087.25;7386016;19;20015;-64
2022/04/07 03:32:02;;;;;;;5.15;0.30;;;;;;;10.89;86.62;98068.38;7386378;19;20139;-65
2022/04/07 03:34:28;;;;;;;2.50;0.20;;;;;;;10.88;85.20;98056.25;7383052;19;20007;-64
2022/04/07 03:36:56;;;;;;;5.07;0.40;;;;;;;10.76;83.62;98059.88;7381282;19;20006;-64
2022/04/07 03:39:23;;;;;;;4.00;0.30;;;;;;;10.70;82.74;98049.22;7383904;19;20528;-64
2022/04/07 03:41:50;;;;;;;4.72;0.70;;;;;;;10.71;82.63;98035.06;7381933;19;20019;-64
2022/04/07 03:44:17;;;;;;;6.20;0.30;;;;;;;10.67;81.28;98033.88;7382620;19;20017;-64
2022/04/07 03:46:44;;;;;;;3.55;0.40;;;;;;;10.69;80.02;98023.16;7384531;19;20033;-65
2022/04/07 03:49:11;;;;;;;1.90;0.10;;;;;;;10.75;80.54;98024.09;7380766;19;20010;-64
2022/04/07 03:51:37;;;;;;;1.63;0.35;;;;;;;10.66;77.47;98013.09;7384694;19;20033;-63
2022/04/07 03:54:09;;;;;;;1.50;0.20;;;;;;;10.62;78.48;98014.53;7383439;19;20011;-65
2022/04/07 03:56:37;;;;;;;3.20;0.10;;;;;;;10.61;78.59;98007.69;7384017;19;20018;-64
2022/04/07 03:59:03;;;;;;;3.92;0.50;;;;;;;10.65;79.72;98017.53;7386330;19;20075;-66
2022/04/07 04:01:30;;;;;;;1.50;0.10;;;;;;;10.63;78.50;98014.31;7382436;19;20019;-65
2022/04/07 04:04:03;;;;;;;3.72;0.20;;;;;;;10.61;77.13;98005.88;7385534;19;20011;-64
2022/04/07 04:06:30;;;;;;;2.25;0.10;;;;;;;10.59;76.49;98000.03;7380721;19;20127;-64
2022/04/07 04:08:57;;;;;;;2.25;0.20;;;;;;;10.56;77.16;97994.41;7381878;19;20013;-64
2022/04/07 04:11:24;;;;;;;2.17;0.30;;;;;;;10.54;78.07;97981.47;7380345;19;20019;-63
2022/04/07 04:13:51;;;;;;;1.80;0.15;;;;;;;10.52;77.53;97974.84;7381571;19;20022;-66
2022/04/07 04:16:25;;;;;;;5.25;0.40;;;;;;;10.53;77.87;97976.44;7380973;19;20014;-64
2022/04/07 04:18:52;;;;;;;1.80;0.17;;;;;;;10.54;78.09;97978.84;7381142;19;20015;-65
2022/04/07 04:21:19;;;;;;;1.17;0.20;;;;;;;10.50;76.17;97985.59;7388589;19;20503;-65
2022/04/07 04:23:48;;;;;;;2.50;0.30;;;;;;;10.48;77.52;97985.00;7388568;19;20073;-62
2022/04/07 04:26:17;;;;;;;1.98;0.20;;;;;;;10.49;77.61;97989.25;7390203;19;20472;-64
2022/04/07 04:28:50;;;;;;;3.22;0.30;;;;;;;10.53;78.09;97994.84;7388546;19;20500;-64
2022/04/07 04:31:17;;;;;;;2.70;0.10;;;;;;;10.52;77.64;97993.22;7387403;19;20655;-65
2022/04/07 04:33:44;;;;;;;1.73;0.08;;;;;;;10.52;78.42;97982.72;7391530;19;20033;-63
2022/04/07 04:36:11;;;;;;;3.22;0.20;;;;;;;10.50;79.19;97980.34;7390570;19;20013;-62
2022/04/07 04:38:38;;;;;;;2.38;0.30;;;;;;;10.53;79.15;97979.06;7390398;19;20041;-64
2022/04/07 04:41:05;;;;;;;4.55;0.20;;;;;;;10.51;77.71;97960.91;7387263;19;20700;-62
2022/04/07 04:43:32;;;;;;;2.70;0.30;;;;;;;10.49;77.42;97962.94;7388090;19;20110;-63
2022/04/07 04:45:59;;;;;;;3.83;0.20;;;;;;;10.45;77.85;97959.19;7386174;19;20487;-64
2022/04/07 04:48:26;;;;;;;4.93;0.68;;;;;;;10.48;78.47;97963.16;7391944;19;20423;-63
2022/04/07 04:50:55;;;;;;;2.70;0.30;;;;;;;10.49;78.23;97965.59;7391151;19;20050;-64
2022/04/07 04:53:23;;;;;;;3.88;0.30;;;;;;;10.51;78.07;97968.00;7390720;19;20057;-65
2022/04/07 04:55:50;;;;;;;2.13;0.20;;;;;;;10.48;77.29;97971.06;7387407;19;20454;-64
2022/04/07 04:58:17;;;;;;;7.60;0.43;;;;;;;10.49;78.56;97970.84;7389354;19;20025;-65
2022/04/07 05:00:44;;;;;;;5.15;0.40;;;;;;;10.48;77.47;97969.22;7385051;19;20006;-65
2022/04/07 05:03:11;;;;;;;4.45;0.40;;;;;;;10.48;77.34;97973.69;7387439;19;20892;-65
2022/04/07 05:05:38;;;;;;;1.23;0.10;;;;;;;10.48;78.29;97978.94;7389512;19;20018;-64
2022/04/07 05:08:05;;;;;;;4.72;0.40;;;;;;;10.48;78.09;97977.13;7387450;19;20093;-65
2022/04/07 05:10:31;;;;;;;3.47;0.30;;;;;;;10.48;78.03;97981.56;7390280;19;20071;-65
2022/04/07 05:12:58;;;;;;;4.85;0.30;;;;;;;10.46;78.40;97992.31;7386994;19;20127;-64
2022/04/07 05:15:25;;;;;;;3.47;0.38;;;;;;;10.47;78.85;97987.84;7390356;19;20074;-65
2022/04/07 05:17:53;;;;;;;3.65;0.20;;;;;;;10.37;76.91;97982.31;7386662;19;20010;-64
2022/04/07 05:20:21;;;;;;;2.75;0.65;;;;;;;10.35;77.20;97987.81;7388151;19;20784;-64
2022/04/07 05:22:48;;;;;;;4.47;0.30;;;;;;;10.38;79.10;97983.94;7384574;19;20024;-64
2022/04/07 05:25:15;;;;;;;4.93;0.88;;;;;;;10.40;78.22;97987.16;7386469;19;20114;-63
2022/04/07 05:27:43;;;;;;;4.90;0.40;;;;;;;10.39;77.74;97983.72;7383892;19;20036;-65
2022/04/07 05:30:17;;;;;;;5.75;0.20;;;;;;;10.36;78.08;97981.53;7387925;19;20031;-67
2022/04/07 05:32:45;;;;;;;4.10;0.30;;;;;;;10.36;78.01;97986.00;7385426;19;20046;-66
2022/04/07 05:35:15;;;;;;;5.53;0.35;;;;;;;10.32;78.77;97977.72;7386800;19;20317;-62
2022/04/07 05:37:47;;;;;;;4.30;0.20;;;;;;;10.33;79.49;97989.84;7386251;19;20038;-65
2022/04/07 05:40:16;;;;;;;4.43;0.30;;;;;;;10.36;79.12;97981.53;7387699;19;20031;-64
2022/04/07 05:42:43;;;;;;;5.28;0.30;;;;;;;10.40;79.79;97987.16;7385525;19;20126;-63
2022/04/07 05:45:10;;;;;;;5.50;0.28;;;;;;;10.40;78.00;97980.06;7384596;19;20108;-63
2022/04/07 05:47:39;;;;;;;3.83;0.20;;;;;;;10.41;78.30;97979.03;7382009;19;20026;-63
2022/04/07 05:50:07;;;;;;;2.50;0.20;;;;;;;10.48;78.73;97976.31;7384630;19;20038;-63
2022/04/07 05:52:34;;;;;;;3.78;0.30;;;;;;;10.52;78.25;97983.53;7386331;19;20018;-63
2022/04/07 05:55:01;;;;;;;5.38;0.30;;;;;;;10.52;78.46;97983.53;7384479;19;20015;-62
2022/04/07 05:57:31;;;;;;;7.18;0.30;;;;;;;10.54;78.15;97986.75;7385129;19;20038;-65
2022/04/07 06:00:12;;;;;;;8.23;0.75;;;;;;;10.56;78.32;97989.97;7385348;19;20085;-63
2022/04/07 06:02:40;;;;;;;4.80;0.20;;;;;;;10.61;79.02;97994.56;7384159;19;20085;-64
2022/04/07 06:05:09;;;;;;;10.80;1.00;;;;;;;10.68;77.73;98003.94;7384925;19;20043;-63
2022/04/07 06:07:37;;;;;;;6.53;0.60;;;;;;;10.67;76.77;98007.59;7383282;19;20011;-64
2022/04/07 06:10:05;;;;;;;6.07;0.50;;;;;;;10.72;77.39;98010.34;7384496;19;20488;-63
2022/04/07 06:12:32;;;;;;;8.45;0.43;;;;;;;10.80;78.46;98018.97;7383948;19;20020;-64
2022/04/07 06:14:59;;;;;;;10.57;0.60;;;;;;;10.82;77.56;98011.66;7381734;19;20317;-65
2022/04/07 06:17:53;;;;;;;7.65;0.50;;;;;;;10.88;76.24;98021.25;7382241;19;20019;-66
2022/04/07 06:20:21;;;;;;;6.22;0.40;;;;;;;10.92;76.16;98032.97;7382335;19;20017;-65
2022/04/07 06:22:48;;;;;;;7.70;0.40;;;;;;;10.95;76.20;98020.16;7388738;19;20018;-64
2022/04/07 06:25:15;;;;;;;10.38;0.40;;;;;;;11.00;75.86;98030.81;7384325;19;20014;-64
2022/04/07 06:27:44;;;;;;;8.63;0.60;;;;;;;11.02;74.23;98035.84;7385550;19;20015;-65
2022/04/07 06:30:13;;;;;;;5.85;0.60;;;;;;;10.99;71.28;98037.09;7383339;19;20082;-65
2022/04/07 06:32:41;;;;;;;6.68;0.38;;;;;;;11.02;72.10;98036.63;7385664;19;20028;-64
2022/04/07 06:35:10;;;;;;;13.10;0.60;;;;;;;11.03;73.09;98035.59;7383257;19;20014;-64
2022/04/07 06:37:54;;;;;;;10.90;0.55;;;;;;;11.08;73.79;98032.28;7381992;19;20017;-65
2022/04/07 06:40:23;;;;;;;7.25;0.47;;;;;;;11.08;72.12;98037.56;7382246;19;20022;-64
2022/04/07 06:42:52;;;;;;;7.70;0.43;;;;;;;11.04;71.08;98031.16;7381191;19;20074;-64
2022/04/07 06:45:27;;;;;;;10.82;0.47;;;;;;;11.03;72.07;98046.13;7381463;19;20017;-64
2022/04/07 06:47:55;;;;;;;3.67;0.43;;;;;;;11.05;72.19;98038.03;7381925;19;20036;-62
2022/04/07 06:50:26;;;;;;;6.07;0.38;;;;;;;11.05;71.21;98035.38;7382289;19;20011;-64
2022/04/07 06:52:54;;;;;;;6.85;0.73;;;;;;;11.13;72.83;98038.50;7383765;19;20007;-65
2022/04/07 06:55:22;;;;;;;10.55;0.88;;;;;;;11.16;70.64;98039.88;7387090;19;20010;-64
2022/04/07 06:57:54;;;;;;;5.65;0.50;;;;;;;11.28;71.30;98039.88;7381903;19;20420;-62
2022/04/07 07:00:29;;;;;;;5.88;0.50;;;;;;;11.36;70.31;98031.69;7385714;19;20025;-65
2022/04/07 07:02:58;;;;;;;10.88;0.70;;;;;;;11.54;68.37;98035.00;7385171;19;20109;-66
2022/04/07 07:05:28;;;;;;;6.95;0.38;;;;;;;11.79;68.20;98042.72;7383623;19;20014;-64
2022/04/07 07:07:54;;;;;;;10.85;0.60;;;;;;;11.90;66.33;98052.44;7384649;19;20015;-63
2022/04/07 07:10:23;;;;;;;8.32;1.30;;;;;;;11.97;65.22;98037.31;7382402;19;20643;-65
2022/04/07 07:12:52;;;;;;;9.05;0.40;;;;;;;12.00;67.37;98041.31;7385516;19;20091;-64
2022/04/07 07:15:23;;;;;;;4.88;1.08;;;;;;;12.11;66.67;98037.88;7382556;19;20031;-64
2022/04/07 07:17:51;;;;;;;5.57;0.40;;;;;;;12.13;65.28;98030.53;7382343;19;20027;-64
2022/04/07 07:20:18;;;;;;;7.40;0.57;;;;;;;12.10;63.33;98031.00;7385085;19;20150;-63
2022/04/07 07:22:47;;;;;;;5.75;1.02;;;;;;;12.25;65.54;98022.59;7384178;19;20448;-63
2022/04/07 07:25:14;;;;;;;8.80;1.00;;;;;;;12.34;63.36;98031.75;7384886;19;20007;-63
2022/04/07 07:27:45;;;;;;;11.32;0.77;;;;;;;12.46;63.95;98029.06;7381632;19;20025;-65
2022/04/07 07:30:15;;;;;;;6.95;0.40;;;;;;;12.39;63.20;98037.13;7387463;19;20022;-65
2022/04/07 07:32:44;;;;;;;3.30;0.50;;;;;;;12.51;64.09;98029.16;7383661;19;20037;-65
2022/04/07 07:35:12;;;;;;;11.68;0.80;;;;;;;12.63;64.44;98040.50;7382233;19;20029;-65
2022/04/07 07:37:51;;;;;;;9.80;0.60;;;;;;;12.54;63.38;98034.81;7382960;19;20011;-63
2022/04/07 07:40:24;;;;;;;7.65;0.50;;;;;;;12.48;61.83;98032.28;7382739;19;20032;-64
2022/04/07 07:42:56;;;;;;;;;;;;;;;12.40;61.80;98018.44;7385668;19;20111;-66
2022/04/07 07:45:25;;;;;;;6.13;0.50;;;;;;;12.49;61.31;98033.91;7377720;19;19961;-64
2022/04/07 07:48:13;;;;;;;3.83;0.35;;;;;;;12.59;60.97;98021.72;7382678;19;20010;-63
2022/04/07 07:50:45;;;;;;;5.45;0.40;;;;;;;12.85;59.15;98038.78;7386593;19;20144;-65
2022/04/07 07:53:20;;;;;;;6.60;0.47;;;;;;;13.10;59.92;98052.47;7381001;19;20078;-63
2022/04/07 07:55:47;;;;;;;3.55;0.30;;;;;;;13.84;58.61;98028.53;7389352;19;20034;-66
2022/04/07 07:58:14;;;;;;;8.82;0.52;;;;;;;14.35;54.63;98046.66;7392163;19;20090;-66
2022/04/07 08:00:41;;;;;;;5.43;0.40;;;;;;;14.91;54.62;98065.84;7389261;19;20007;-67
2022/04/07 08:03:08;;;;;;;7.15;0.43;;;;;;;15.28;51.15;98058.81;7391953;19;20018;-65
2022/04/07 08:05:37;;;;;;;5.43;0.32;;;;;;;15.55;50.66;98050.03;7388638;19;20018;-65
2022/04/07 08:08:05;;;;;;;6.35;0.60;;;;;;;15.37;50.51;98061.78;7386782;19;20017;-65
2022/04/07 08:10:32;;;;;;;5.22;0.32;;;;;;;14.97;53.04;98067.50;7385811;19;20090;-64
2022/04/07 08:12:59;;;;;;;3.95;0.60;;;;;;;14.62;53.12;98075.88;7393377;19;20444;-66
2022/04/07 08:15:27;;;;;;;6.15;0.28;;;;;;;14.16;53.24;98076.31;7388820;19;20003;-66
2022/04/07 08:17:54;;;;;;;6.63;0.40;;;;;;;13.73;53.43;98080.44;7392409;19;20036;-65
2022/04/07 08:20:21;;;;;;;7.80;0.45;;;;;;;13.55;54.99;98084.13;7387418;19;20018;-64
2022/04/07 08:22:48;;;;;;;8.27;0.32;;;;;;;13.46;55.34;98082.13;7390469;19;20663;-63
2022/04/07 08:25:14;;;;;;;11.57;0.77;;;;;;;13.35;55.57;98091.72;7389127;19;20006;-65
2022/04/07 08:27:41;;;;;;;6.97;0.40;;;;;;;13.23;55.91;98093.63;7389021;19;20695;-65
2022/04/07 08:30:09;;;;;;;9.98;0.47;;;;;;;13.14;56.21;98109.06;7387871;19;20564;-64
2022/04/07 08:32:35;;;;;;;6.47;0.50;;;;;;;13.08;57.47;98112.59;7388623;19;20006;-64
2022/04/07 08:35:03;;;;;;;9.38;0.50;;;;;;;13.08;56.23;98109.16;7390219;19;20021;-66
2022/04/07 08:37:30;;;;;;;9.63;0.35;;;;;;;13.06;56.41;98114.66;7387654;19;20010;-62
2022/04/07 08:39:57;;;;;;;4.80;0.30;;;;;;;13.05;56.74;98118.38;7386985;19;20098;-63
2022/04/07 08:42:26;;;;;;;8.15;1.05;;;;;;;13.07;56.63;98102.25;7389460;19;20329;-63
2022/04/07 08:44:54;;;;;;;5.05;0.60;;;;;;;13.03;55.50;98104.59;7391054;19;20023;-64
2022/04/07 08:47:22;;;;;;;6.75;0.30;;;;;;;13.01;56.29;98111.94;7387799;19;20463;-64
2022/04/07 08:49:50;;;;;;;7.65;1.05;;;;;;;13.08;57.21;98117.06;7387656;19;20611;-65
2022/04/07 08:52:18;;;;;;;5.53;0.30;;;;;;;13.15;55.75;98110.66;7387697;19;20186;-63
2022/04/07 08:54:46;;;;;;;13.50;0.50;;;;;;;13.21;54.90;98133.44;7387564;19;20404;-64
2022/04/07 08:57:14;;;;;;;8.77;0.90;;;;;;;13.35;56.28;98133.19;7387029;19;20158;-64
2022/04/07 08:59:42;;;;;;;4.35;0.30;;;;;;;13.46;56.00;98125.16;7390854;19;20082;-65
2022/04/07 09:02:12;;;;;;;6.10;0.60;;;;;;;13.57;55.09;98158.66;7392207;19;20007;-64
2022/04/07 09:04:40;;;;;;;7.90;0.45;;;;;;;13.59;53.35;98137.28;7387729;19;20039;-64
2022/04/07 09:07:07;;;;;;;6.07;0.60;;;;;;;13.49;53.02;98176.75;7387524;19;20030;-65
2022/04/07 09:09:38;;;;;;;5.63;0.50;;;;;;;13.40;53.84;98152.56;7387218;19;20011;-63
2022/04/07 09:12:05;;;;;;;2.63;0.52;;;;;;;13.44;53.43;98174.81;7387301;19;20018;-63
2022/04/07 09:14:35;;;;;;;4.00;0.28;;;;;;;13.52;54.74;98181.53;7387002;19;20015;-63
2022/04/07 09:17:10;;;;;;;4.80;0.30;;;;;;;13.53;53.73;98168.09;7388613;19;20484;-64
2022/04/07 09:19:37;;;;;;;9.13;0.55;;;;;;;13.51;53.88;98174.69;7390071;19;20092;-66
2022/04/07 09:22:11;;;;;;;5.00;0.28;;;;;;;13.51;53.58;98174.69;7385644;19;20034;-65
2022/04/07 09:24:40;;;;;;;16.05;4.53;;;;;;;13.50;53.18;98170.44;7389444;19;20356;-66
2022/04/07 09:27:09;;;;;;;10.25;0.65;;;;;;;13.54;54.46;98180.28;7387671;19;20026;-63
2022/04/07 09:29:44;;;;;;;4.40;0.28;;;;;;;13.54;53.45;98182.91;7387234;19;20021;-63
2022/04/07 09:32:21;;;;;;;7.93;0.52;;;;;;;13.54;53.32;98185.56;7387610;19;20014;-63
2022/04/07 09:34:56;;;;;;;5.10;0.30;;;;;;;13.50;52.00;98189.72;7390820;19;20015;-65
2022/04/07 09:37:25;;;;;;;2.63;0.30;;;;;;;13.47;52.04;98192.00;7386072;19;20033;-64
2022/04/07 09:40:09;;;;;;;5.88;0.35;;;;;;;13.49;51.76;98217.16;7387715;19;20078;-66
2022/04/07 09:42:37;;;;;;;4.95;0.25;;;;;;;13.51;51.99;98209.03;7387205;19;20074;-64
2022/04/07 09:45:07;;;;;;;4.10;0.50;;;;;;;13.59;52.97;98213.91;7387542;19;20016;-65
2022/04/07 09:47:35;;;;;;;6.25;0.30;;;;;;;13.59;52.30;98219.19;7384639;19;20014;-64
2022/04/07 09:50:18;;;;;;;4.50;0.30;;;;;;;13.57;51.54;98221.25;7387346;19;20082;-64
2022/04/07 09:53:14;;;;;;;4.95;0.32;;;;;;;13.60;51.66;98244.59;7390084;19;20014;-64
2022/04/07 09:55:41;;;;;;;8.27;0.68;;;;;;;13.61;50.78;98235.63;7387359;19;20014;-64
2022/04/07 09:58:11;;;;;;;5.40;0.20;;;;;;;13.62;51.25;98219.50;7388592;19;20022;-65
2022/04/07 10:00:39;;;;;;;5.07;0.28;;;;;;;13.63;52.41;98228.25;7386393;19;20532;-66
2022/04/07 10:03:08;;;;;;;8.40;0.28;;;;;;;13.62;50.56;98248.56;7388557;19;20098;-65
2022/04/07 10:05:36;;;;;;;2.03;0.20;;;;;;;13.68;50.95;98233.63;7388418;19;20019;-66
2022/04/07 10:08:04;;;;;;;8.00;0.30;;;;;;;13.69;51.51;98259.81;7385500;19;20045;-65
2022/04/07 10:10:31;;;;;;;6.55;0.35;;;;;;;13.70;50.55;98240.28;7385790;19;20345;-64
2022/04/07 10:12:59;;;;;;;7.70;0.40;;;;;;;13.77;51.18;98247.25;7385556;19;20412;-64
2022/04/07 10:15:27;;;;;;;7.28;0.98;;;;;;;13.86;50.72;98251.94;7386136;19;20026;-64
2022/04/07 10:17:56;;;;;;;7.95;0.30;;;;;;;13.96;50.92;98260.03;7385459;19;20014;-66
2022/04/07 10:20:33;;;;;;;8.48;0.80;;;;;;;14.03;49.54;98270.44;7388579;19;20033;-64
2022/04/07 10:23:16;;;;;;;3.88;0.52;;;;;;;14.05;49.19;98263.09;7385165;19;20017;-66
2022/04/07 10:25:45;;;;;;;;;;;;;;;14.11;50.67;98255.03;7386971;19;20078;-65
2022/04/07 10:28:12;;;;;;;2.80;0.13;;;;;;;14.18;48.96;98281.28;7384316;19;20007;-65
2022/04/07 10:30:49;;;;;;;5.97;0.10;;;;;;;14.16;47.03;98279.94;7384350;19;20011;-66
2022/04/07 10:33:38;;;;;;;3.55;0.22;;;;;;;14.11;50.24;98278.00;7388899;19;20306;-64
2022/04/07 10:36:24;;;;;;;4.78;0.63;;;;;;;14.19;51.20;98276.81;7383528;19;20625;-63
2022/04/07 10:38:52;;;;;;;5.38;0.30;;;;;;;14.22;49.31;98271.81;7387090;19;20064;-65
2022/04/07 10:41:38;;;;;;;3.72;0.30;;;;;;;14.23;49.77;98291.16;7386734;19;20088;-64
2022/04/07 10:44:13;;;;;;;5.75;0.30;;;;;;;14.17;49.63;98284.19;7388076;19;20034;-64
2022/04/07 10:46:41;;;;;;;5.88;0.60;;;;;;;14.12;48.18;98280.41;7385281;19;20136;-65
2022/04/07 10:49:10;;;;;;;5.78;0.30;;;;;;;14.14;48.82;98302.13;7384371;19;20014;-65
2022/04/07 10:51:56;;;;;;;4.63;0.30;;;;;;;14.17;48.97;98297.41;7388008;19;20015;-63
2022/04/07 10:54:26;;;;;;;4.93;0.35;;;;;;;14.22;48.81;98298.28;7383681;19;20094;-65
2022/04/07 10:56:53;;;;;;;2.20;0.20;;;;;;;14.30;49.09;98320.91;7384238;19;20026;-65
2022/04/07 10:59:28;;;;;;;5.88;0.38;;;;;;;14.24;48.23;98317.38;7383732;19;20161;-65
2022/04/07 11:02:09;;;;;;;4.03;0.30;;;;;;;14.18;49.85;98325.44;7382512;19;20029;-64
2022/04/07 11:04:39;;;;;;;6.28;0.20;;;;;;;14.20;47.90;98328.66;7382980;19;20015;-63
2022/04/07 11:07:09;;;;;;;5.05;0.20;;;;;;;14.27;48.02;98301.03;7386188;19;20010;-64
2022/04/07 11:09:57;;;;;;;3.97;0.30;;;;;;;14.22;47.04;98319.44;7378278;19;20397;-63
2022/04/07 11:12:34;;;;;;;3.40;0.20;;;;;;;14.21;45.81;98331.09;7388348;19;20042;-65
2022/04/07 11:15:01;;;;;;;22.15;8.18;;;;;;;14.23;49.41;98331.63;7384040;19;20022;-65
2022/04/07 11:17:46;;;;;;;6.82;1.00;;;;;;;14.30;47.58;98337.59;7383768;19;20216;-64
2022/04/07 11:20:19;;;;;;;2.88;1.00;;;;;;;14.36;47.82;98327.88;7386555;19;20035;-65
2022/04/07 11:23:08;;;;;;;3.88;0.32;;;;;;;14.39;46.99;98357.34;7383640;19;20358;-65
2022/04/07 11:25:37;;;;;;;4.57;0.20;;;;;;;14.41;45.95;98341.22;7383102;19;20014;-65
2022/04/07 11:28:19;;;;;;;3.42;0.10;;;;;;;14.42;45.52;98329.63;7384072;19;20407;-66
2022/04/07 11:31:05;;;;;;;3.17;0.20;;;;;;;14.46;47.20;98334.19;7392823;19;20066;-66
2022/04/07 11:33:39;;;;;;;5.75;0.25;;;;;;;14.49;47.06;98335.53;7394596;19;20318;-64
2022/04/07 11:36:14;;;;;;;4.22;0.57;;;;;;;14.47;46.56;98324.41;7391712;19;20629;-64
2022/04/07 11:38:47;;;;;;;5.57;0.20;;;;;;;14.49;47.19;98336.34;7392366;19;20019;-65
2022/04/07 11:41:18;;;;;;;6.45;0.30;;;;;;;14.50;46.25;98353.03;7390721;19;20457;-64
2022/04/07 11:43:50;;;;;;;4.95;0.20;;;;;;;14.55;45.53;98345.97;7390402;19;20015;-65